sensor_id;sensor_type;location;lat;lon;timestamp;P1;durP1;ratioP1;P2;durP2;ratioP2
23519;SDS011;11936;50.820;4.336;2024-03-23T00:54:18;8.30;;;3.38;;
23519;SDS011;11936;50.820;4.336;2024-03-23T00:56:44;8.07;;;2.63;;
23519;SDS011;11936;50.820;4.336;2024-03-23T00:59:09;12.13;;;2.97;;
23519;SDS011;11936;50.820;4.336;2024-03-23T01:01:35;10.40;;;2.95;;
23519;SDS011;11936;50.820;4.336;2024-03-23T01:04:00;8.68;;;3.60;;
23519;SDS011;11936;50.820;4.336;2024-03-23T01:06:27;9.68;;;2.97;;
23519;SDS011;11936;50.820;4.336;2024-03-23T01:08:53;7.80;;;2.22;;
23519;SDS011;11936;50.820;4.336;2024-03-23T01:11:18;12.23;;;3.28;;
23519;SDS011;11936;50.820;4.336;2024-03-23T01:13:44;6.45;;;2.35;;
23519;SDS011;11936;50.820;4.336;2024-03-23T01:16:09;6.80;;;3.15;;
23519;SDS011;11936;50.820;4.336;2024-03-23T01:18:35;9.23;;;2.92;;
23519;SDS011;11936;50.820;4.336;2024-03-23T01:21:01;10.95;;;3.30;;
23519;SDS011;11936;50.820;4.336;2024-03-23T01:23:26;8.98;;;3.63;;
23519;SDS011;11936;50.820;4.336;2024-03-23T01:25:52;9.82;;;3.58;;
23519;SDS011;11936;50.820;4.336;2024-03-23T01:28:19;8.80;;;3.88;;
23519;SDS011;11936;50.820;4.336;2024-03-23T01:30:45;12.80;;;4.65;;
23519;SDS011;11936;50.820;4.336;2024-03-23T01:33:10;8.23;;;4.10;;
23519;SDS011;11936;50.820;4.336;2024-03-23T01:35:36;7.88;;;4.13;;
23519;SDS011;11936;50.820;4.336;2024-03-23T01:38:02;10.77;;;4.18;;
23519;SDS011;11936;50.820;4.336;2024-03-23T01:40:28;11.25;;;4.43;;
23519;SDS011;11936;50.820;4.336;2024-03-23T01:42:57;8.63;;;4.53;;
23519;SDS011;11936;50.820;4.336;2024-03-23T01:45:24;9.55;;;3.85;;
23519;SDS011;11936;50.820;4.336;2024-03-23T01:47:52;15.13;;;4.82;;
23519;SDS011;11936;50.820;4.336;2024-03-23T01:50:22;10.75;;;4.88;;
23519;SDS011;11936;50.820;4.336;2024-03-23T01:52:48;9.88;;;4.47;;
23519;SDS011;11936;50.820;4.336;2024-03-23T01:55:15;8.30;;;4.88;;
23519;SDS011;11936;50.820;4.336;2024-03-23T01:57:41;10.27;;;4.82;;
23519;SDS011;11936;50.820;4.336;2024-03-23T02:00:07;15.23;;;4.38;;
23519;SDS011;11936;50.820;4.336;2024-03-23T02:02:34;8.35;;;4.30;;
23519;SDS011;11936;50.820;4.336;2024-03-23T02:05:00;12.50;;;4.45;;
23519;SDS011;11936;50.820;4.336;2024-03-23T02:07:26;14.15;;;5.10;;
23519;SDS011;11936;50.820;4.336;2024-03-23T02:09:52;16.60;;;4.85;;
23519;SDS011;11936;50.820;4.336;2024-03-23T02:12:18;10.10;;;4.88;;
23519;SDS011;11936;50.820;4.336;2024-03-23T02:14:44;12.55;;;5.40;;
23519;SDS011;11936;50.820;4.336;2024-03-23T02:17:09;11.80;;;5.07;;
23519;SDS011;11936;50.820;4.336;2024-03-23T02:19:35;13.10;;;5.32;;
23519;SDS011;11936;50.820;4.336;2024-03-23T02:22:01;15.95;;;5.68;;
23519;SDS011;11936;50.820;4.336;2024-03-23T02:24:28;9.40;;;4.93;;
23519;SDS011;11936;50.820;4.336;2024-03-23T02:26:54;18.83;;;5.78;;
23519;SDS011;11936;50.820;4.336;2024-03-23T02:29:20;14.60;;;5.72;;
23519;SDS011;11936;50.820;4.336;2024-03-23T02:31:45;20.63;;;6.45;;
23519;SDS011;11936;50.820;4.336;2024-03-23T02:34:11;13.45;;;5.30;;
23519;SDS011;11936;50.820;4.336;2024-03-23T02:36:37;14.43;;;5.82;;
23519;SDS011;11936;50.820;4.336;2024-03-23T02:39:02;13.38;;;6.03;;
23519;SDS011;11936;50.820;4.336;2024-03-23T02:41:28;17.20;;;6.15;;
23519;SDS011;11936;50.820;4.336;2024-03-23T02:43:53;21.27;;;6.43;;
23519;SDS011;11936;50.820;4.336;2024-03-23T02:46:19;14.77;;;6.53;;
23519;SDS011;11936;50.820;4.336;2024-03-23T02:48:44;13.68;;;6.30;;
23519;SDS011;11936;50.820;4.336;2024-03-23T02:51:13;13.73;;;6.03;;
23519;SDS011;11936;50.820;4.336;2024-03-23T02:53:38;13.80;;;5.93;;
23519;SDS011;11936;50.820;4.336;2024-03-23T02:56:04;13.68;;;6.35;;
23519;SDS011;11936;50.820;4.336;2024-03-23T02:58:30;16.52;;;7.20;;
23519;SDS011;11936;50.820;4.336;2024-03-23T03:00:55;24.15;;;7.30;;
23519;SDS011;11936;50.820;4.336;2024-03-23T03:03:21;17.08;;;7.80;;
23519;SDS011;11936;50.820;4.336;2024-03-23T03:05:47;19.17;;;7.55;;
23519;SDS011;11936;50.820;4.336;2024-03-23T03:08:12;17.25;;;7.53;;
23519;SDS011;11936;50.820;4.336;2024-03-23T03:10:38;15.60;;;6.88;;
23519;SDS011;11936;50.820;4.336;2024-03-23T03:13:03;18.80;;;7.70;;
23519;SDS011;11936;50.820;4.336;2024-03-23T03:15:29;19.05;;;7.60;;
23519;SDS011;11936;50.820;4.336;2024-03-23T03:17:55;20.42;;;7.45;;
23519;SDS011;11936;50.820;4.336;2024-03-23T03:20:20;19.35;;;7.63;;
23519;SDS011;11936;50.820;4.336;2024-03-23T03:22:48;20.90;;;7.50;;
23519;SDS011;11936;50.820;4.336;2024-03-23T03:25:14;17.63;;;7.82;;
23519;SDS011;11936;50.820;4.336;2024-03-23T03:27:39;20.10;;;7.57;;
23519;SDS011;11936;50.820;4.336;2024-03-23T03:30:05;18.85;;;8.32;;
23519;SDS011;11936;50.820;4.336;2024-03-23T03:32:33;22.42;;;8.07;;
23519;SDS011;11936;50.820;4.336;2024-03-23T03:34:59;20.65;;;8.60;;
23519;SDS011;11936;50.820;4.336;2024-03-23T03:37:24;22.55;;;8.20;;
23519;SDS011;11936;50.820;4.336;2024-03-23T03:39:50;19.38;;;7.95;;
23519;SDS011;11936;50.820;4.336;2024-03-23T03:42:16;22.85;;;7.40;;
23519;SDS011;11936;50.820;4.336;2024-03-23T03:44:41;24.42;;;8.75;;
23519;SDS011;11936;50.820;4.336;2024-03-23T03:47:07;21.17;;;7.75;;
23519;SDS011;11936;50.820;4.336;2024-03-23T03:49:32;23.95;;;8.50;;
23519;SDS011;11936;50.820;4.336;2024-03-23T03:51:58;15.27;;;7.68;;
23519;SDS011;11936;50.820;4.336;2024-03-23T03:54:26;14.48;;;7.53;;
23519;SDS011;11936;50.820;4.336;2024-03-23T03:56:52;18.88;;;7.72;;
23519;SDS011;11936;50.820;4.336;2024-03-23T03:59:18;22.17;;;8.00;;
23519;SDS011;11936;50.820;4.336;2024-03-23T04:01:44;15.05;;;8.07;;
23519;SDS011;11936;50.820;4.336;2024-03-23T04:04:10;14.63;;;7.05;;
23519;SDS011;11936;50.820;4.336;2024-03-23T04:06:36;18.48;;;7.57;;
23519;SDS011;11936;50.820;4.336;2024-03-23T04:09:02;15.30;;;6.38;;
23519;SDS011;11936;50.820;4.336;2024-03-23T04:11:27;20.90;;;7.57;;
23519;SDS011;11936;50.820;4.336;2024-03-23T04:13:53;16.92;;;7.25;;
23519;SDS011;11936;50.820;4.336;2024-03-23T04:16:28;16.73;;;7.55;;
23519;SDS011;11936;50.820;4.336;2024-03-23T04:18:54;19.63;;;7.65;;
23519;SDS011;11936;50.820;4.336;2024-03-23T04:21:21;16.70;;;6.07;;
23519;SDS011;11936;50.820;4.336;2024-03-23T04:23:47;19.55;;;6.97;;
23519;SDS011;11936;50.820;4.336;2024-03-23T04:26:13;9.07;;;5.55;;
23519;SDS011;11936;50.820;4.336;2024-03-23T04:28:40;19.00;;;6.40;;
23519;SDS011;11936;50.820;4.336;2024-03-23T04:31:05;14.27;;;5.57;;
23519;SDS011;11936;50.820;4.336;2024-03-23T04:33:31;14.63;;;5.70;;
23519;SDS011;11936;50.820;4.336;2024-03-23T04:35:56;13.38;;;5.50;;
23519;SDS011;11936;50.820;4.336;2024-03-23T04:38:22;15.85;;;5.90;;
23519;SDS011;11936;50.820;4.336;2024-03-23T04:40:55;14.43;;;5.53;;
23519;SDS011;11936;50.820;4.336;2024-03-23T04:43:21;12.48;;;5.53;;
23519;SDS011;11936;50.820;4.336;2024-03-23T04:45:47;19.40;;;5.72;;
23519;SDS011;11936;50.820;4.336;2024-03-23T04:48:12;9.48;;;5.07;;
23519;SDS011;11936;50.820;4.336;2024-03-23T04:50:38;15.05;;;6.22;;
23519;SDS011;11936;50.820;4.336;2024-03-23T04:53:03;13.38;;;5.40;;
23519;SDS011;11936;50.820;4.336;2024-03-23T04:55:29;14.60;;;4.88;;
23519;SDS011;11936;50.820;4.336;2024-03-23T04:57:56;19.20;;;6.15;;
23519;SDS011;11936;50.820;4.336;2024-03-23T05:00:21;17.75;;;5.25;;
23519;SDS011;11936;50.820;4.336;2024-03-23T05:02:48;12.43;;;4.65;;
23519;SDS011;11936;50.820;4.336;2024-03-23T05:05:14;17.13;;;5.57;;
23519;SDS011;11936;50.820;4.336;2024-03-23T05:07:39;16.58;;;5.40;;
23519;SDS011;11936;50.820;4.336;2024-03-23T05:10:06;10.60;;;4.55;;
23519;SDS011;11936;50.820;4.336;2024-03-23T05:12:36;14.88;;;5.22;;
23519;SDS011;11936;50.820;4.336;2024-03-23T05:15:03;12.65;;;4.70;;
23519;SDS011;11936;50.820;4.336;2024-03-23T05:17:32;15.27;;;5.40;;
23519;SDS011;11936;50.820;4.336;2024-03-23T05:19:59;15.50;;;5.20;;
23519;SDS011;11936;50.820;4.336;2024-03-23T05:22:24;12.40;;;4.80;;
23519;SDS011;11936;50.820;4.336;2024-03-23T05:24:50;14.73;;;4.95;;
23519;SDS011;11936;50.820;4.336;2024-03-23T05:27:16;24.58;;;6.13;;
23519;SDS011;11936;50.820;4.336;2024-03-23T05:29:41;8.95;;;4.35;;
23519;SDS011;11936;50.820;4.336;2024-03-23T05:32:07;9.05;;;4.63;;
23519;SDS011;11936;50.820;4.336;2024-03-23T05:34:33;10.07;;;4.55;;
23519;SDS011;11936;50.820;4.336;2024-03-23T05:36:58;13.52;;;4.43;;
23519;SDS011;11936;50.820;4.336;2024-03-23T05:39:24;9.15;;;4.10;;
23519;SDS011;11936;50.820;4.336;2024-03-23T05:41:50;12.75;;;4.10;;
23519;SDS011;11936;50.820;4.336;2024-03-23T05:44:16;11.30;;;4.45;;
23519;SDS011;11936;50.820;4.336;2024-03-23T05:46:41;11.68;;;4.00;;
23519;SDS011;11936;50.820;4.336;2024-03-23T05:49:07;10.60;;;4.13;;
23519;SDS011;11936;50.820;4.336;2024-03-23T05:51:34;11.25;;;3.63;;
23519;SDS011;11936;50.820;4.336;2024-03-23T05:53:59;14.43;;;3.45;;
23519;SDS011;11936;50.820;4.336;2024-03-23T05:56:26;9.38;;;3.13;;
23519;SDS011;11936;50.820;4.336;2024-03-23T05:58:53;13.93;;;3.15;;
23519;SDS011;11936;50.820;4.336;2024-03-23T06:01:19;8.57;;;2.67;;
23519;SDS011;11936;50.820;4.336;2024-03-23T06:03:44;14.10;;;2.80;;
23519;SDS011;11936;50.820;4.336;2024-03-23T06:06:10;7.32;;;2.80;;
23519;SDS011;11936;50.820;4.336;2024-03-23T06:08:37;8.60;;;2.90;;
23519;SDS011;11936;50.820;4.336;2024-03-23T06:11:04;14.50;;;4.95;;
23519;SDS011;11936;50.820;4.336;2024-03-23T06:13:31;10.50;;;3.13;;
23519;SDS011;11936;50.820;4.336;2024-03-23T06:15:57;14.27;;;3.40;;
23519;SDS011;11936;50.820;4.336;2024-03-23T06:18:23;9.70;;;2.85;;
23519;SDS011;11936;50.820;4.336;2024-03-23T06:20:49;12.48;;;2.60;;
23519;SDS011;11936;50.820;4.336;2024-03-23T06:23:15;14.75;;;2.88;;
23519;SDS011;11936;50.820;4.336;2024-03-23T06:25:42;14.38;;;2.80;;
23519;SDS011;11936;50.820;4.336;2024-03-23T06:28:08;13.35;;;2.42;;
23519;SDS011;11936;50.820;4.336;2024-03-23T06:30:33;15.30;;;3.58;;
23519;SDS011;11936;50.820;4.336;2024-03-23T06:32:59;13.02;;;3.67;;
23519;SDS011;11936;50.820;4.336;2024-03-23T06:35:24;7.47;;;2.40;;
23519;SDS011;11936;50.820;4.336;2024-03-23T06:37:50;9.00;;;2.70;;
23519;SDS011;11936;50.820;4.336;2024-03-23T06:40:16;12.40;;;2.83;;
23519;SDS011;11936;50.820;4.336;2024-03-23T06:42:41;9.70;;;2.88;;
23519;SDS011;11936;50.820;4.336;2024-03-23T06:45:07;10.77;;;3.53;;
23519;SDS011;11936;50.820;4.336;2024-03-23T06:47:33;21.15;;;5.40;;
23519;SDS011;11936;50.820;4.336;2024-03-23T06:49:59;10.90;;;3.00;;
23519;SDS011;11936;50.820;4.336;2024-03-23T06:52:28;16.30;;;2.88;;
23519;SDS011;11936;50.820;4.336;2024-03-23T06:54:54;8.98;;;2.92;;
23519;SDS011;11936;50.820;4.336;2024-03-23T06:57:20;12.55;;;3.15;;
23519;SDS011;11936;50.820;4.336;2024-03-23T06:59:45;13.65;;;3.13;;
23519;SDS011;11936;50.820;4.336;2024-03-23T07:02:11;6.25;;;2.53;;
23519;SDS011;11936;50.820;4.336;2024-03-23T07:04:37;14.57;;;3.08;;
23519;SDS011;11936;50.820;4.336;2024-03-23T07:07:04;18.83;;;3.20;;
23519;SDS011;11936;50.820;4.336;2024-03-23T07:09:30;10.02;;;2.85;;
23519;SDS011;11936;50.820;4.336;2024-03-23T07:11:56;8.25;;;2.95;;
23519;SDS011;11936;50.820;4.336;2024-03-23T07:14:22;4.72;;;2.80;;
23519;SDS011;11936;50.820;4.336;2024-03-23T07:16:49;8.02;;;2.95;;
23519;SDS011;11936;50.820;4.336;2024-03-23T07:19:18;11.45;;;3.67;;
23519;SDS011;11936;50.820;4.336;2024-03-23T07:24:09;13.15;;;2.40;;
23519;SDS011;11936;50.820;4.336;2024-03-23T07:26:35;17.02;;;3.10;;
23519;SDS011;11936;50.820;4.336;2024-03-23T07:29:02;13.82;;;3.40;;
23519;SDS011;11936;50.820;4.336;2024-03-23T07:31:28;11.43;;;3.13;;
23519;SDS011;11936;50.820;4.336;2024-03-23T07:33:54;11.82;;;2.40;;
23519;SDS011;11936;50.820;4.336;2024-03-23T07:36:20;7.28;;;2.42;;
23519;SDS011;11936;50.820;4.336;2024-03-23T07:38:45;12.43;;;3.10;;
23519;SDS011;11936;50.820;4.336;2024-03-23T07:41:11;20.27;;;3.80;;
23519;SDS011;11936;50.820;4.336;2024-03-23T07:43:44;15.02;;;3.35;;
23519;SDS011;11936;50.820;4.336;2024-03-23T07:46:11;9.35;;;2.80;;
23519;SDS011;11936;50.820;4.336;2024-03-23T07:48:37;20.67;;;3.58;;
23519;SDS011;11936;50.820;4.336;2024-03-23T07:53:36;13.48;;;3.45;;
23519;SDS011;11936;50.820;4.336;2024-03-23T07:56:05;23.20;;;4.05;;
23519;SDS011;11936;50.820;4.336;2024-03-23T07:58:37;14.85;;;3.45;;
23519;SDS011;11936;50.820;4.336;2024-03-23T08:01:04;10.18;;;3.08;;
23519;SDS011;11936;50.820;4.336;2024-03-23T08:03:37;8.02;;;2.90;;
23519;SDS011;11936;50.820;4.336;2024-03-23T08:06:13;12.50;;;3.00;;
23519;SDS011;11936;50.820;4.336;2024-03-23T08:08:41;9.55;;;2.58;;
23519;SDS011;11936;50.820;4.336;2024-03-23T08:11:08;13.45;;;3.22;;
23519;SDS011;11936;50.820;4.336;2024-03-23T08:13:38;16.45;;;2.95;;
23519;SDS011;11936;50.820;4.336;2024-03-23T08:16:05;7.43;;;2.15;;
23519;SDS011;11936;50.820;4.336;2024-03-23T08:18:31;13.27;;;2.92;;
23519;SDS011;11936;50.820;4.336;2024-03-23T08:21:04;6.28;;;2.50;;
23519;SDS011;11936;50.820;4.336;2024-03-23T08:23:31;11.15;;;3.25;;
23519;SDS011;11936;50.820;4.336;2024-03-23T08:26:08;10.00;;;2.65;;
23519;SDS011;11936;50.820;4.336;2024-03-23T08:28:36;9.20;;;2.95;;
23519;SDS011;11936;50.820;4.336;2024-03-23T08:31:10;12.55;;;3.03;;
23519;SDS011;11936;50.820;4.336;2024-03-23T08:33:37;12.60;;;2.85;;
23519;SDS011;11936;50.820;4.336;2024-03-23T08:36:04;11.00;;;3.28;;
23519;SDS011;11936;50.820;4.336;2024-03-23T08:38:31;14.05;;;3.58;;
23519;SDS011;11936;50.820;4.336;2024-03-23T08:40:58;8.45;;;2.42;;
23519;SDS011;11936;50.820;4.336;2024-03-23T08:43:24;15.88;;;2.92;;
23519;SDS011;11936;50.820;4.336;2024-03-23T08:45:49;9.85;;;2.72;;
23519;SDS011;11936;50.820;4.336;2024-03-23T08:48:15;8.18;;;2.22;;
23519;SDS011;11936;50.820;4.336;2024-03-23T08:50:41;12.93;;;3.10;;
23519;SDS011;11936;50.820;4.336;2024-03-23T08:53:06;14.50;;;3.00;;
23519;SDS011;11936;50.820;4.336;2024-03-23T08:55:32;6.20;;;2.60;;
23519;SDS011;11936;50.820;4.336;2024-03-23T08:57:58;10.82;;;2.10;;
23519;SDS011;11936;50.820;4.336;2024-03-23T09:00:25;9.07;;;2.65;;
23519;SDS011;11936;50.820;4.336;2024-03-23T09:02:50;6.50;;;1.98;;
23519;SDS011;11936;50.820;4.336;2024-03-23T09:05:16;6.70;;;2.33;;
23519;SDS011;11936;50.820;4.336;2024-03-23T09:07:42;6.18;;;2.08;;
23519;SDS011;11936;50.820;4.336;2024-03-23T09:10:07;13.88;;;2.60;;
23519;SDS011;11936;50.820;4.336;2024-03-23T09:12:33;9.38;;;2.58;;
23519;SDS011;11936;50.820;4.336;2024-03-23T09:14:59;11.38;;;2.70;;
23519;SDS011;11936;50.820;4.336;2024-03-23T09:17:24;10.85;;;3.00;;
23519;SDS011;11936;50.820;4.336;2024-03-23T09:19:50;10.25;;;2.53;;
23519;SDS011;11936;50.820;4.336;2024-03-23T09:22:15;12.57;;;2.58;;
23519;SDS011;11936;50.820;4.336;2024-03-23T09:24:41;12.95;;;2.50;;
23519;SDS011;11936;50.820;4.336;2024-03-23T09:27:06;12.05;;;3.35;;
23519;SDS011;11936;50.820;4.336;2024-03-23T09:29:32;10.30;;;2.30;;
23519;SDS011;11936;50.820;4.336;2024-03-23T09:31:58;10.10;;;2.30;;
23519;SDS011;11936;50.820;4.336;2024-03-23T09:34:23;14.38;;;2.85;;
23519;SDS011;11936;50.820;4.336;2024-03-23T09:36:52;12.93;;;3.08;;
23519;SDS011;11936;50.820;4.336;2024-03-23T09:39:18;9.80;;;2.58;;
23519;SDS011;11936;50.820;4.336;2024-03-23T09:41:44;9.35;;;2.35;;
23519;SDS011;11936;50.820;4.336;2024-03-23T09:44:10;14.27;;;2.35;;
23519;SDS011;11936;50.820;4.336;2024-03-23T09:46:36;13.10;;;3.30;;
23519;SDS011;11936;50.820;4.336;2024-03-23T09:49:04;10.47;;;2.47;;
23519;SDS011;11936;50.820;4.336;2024-03-23T09:51:34;9.50;;;2.65;;
23519;SDS011;11936;50.820;4.336;2024-03-23T09:54:01;10.40;;;2.85;;
23519;SDS011;11936;50.820;4.336;2024-03-23T09:56:27;6.88;;;2.30;;
23519;SDS011;11936;50.820;4.336;2024-03-23T09:58:59;5.82;;;2.35;;
23519;SDS011;11936;50.820;4.336;2024-03-23T10:01:31;7.80;;;2.33;;
23519;SDS011;11936;50.820;4.336;2024-03-23T10:03:57;7.65;;;2.00;;
23519;SDS011;11936;50.820;4.336;2024-03-23T10:06:23;5.47;;;2.20;;
23519;SDS011;11936;50.820;4.336;2024-03-23T10:08:50;7.03;;;2.20;;
23519;SDS011;11936;50.820;4.336;2024-03-23T10:11:16;8.50;;;2.00;;
23519;SDS011;11936;50.820;4.336;2024-03-23T10:13:44;5.37;;;2.13;;
23519;SDS011;11936;50.820;4.336;2024-03-23T10:16:11;7.55;;;2.30;;
23519;SDS011;11936;50.820;4.336;2024-03-23T10:18:45;9.02;;;2.50;;
23519;SDS011;11936;50.820;4.336;2024-03-23T10:21:10;11.68;;;1.90;;
23519;SDS011;11936;50.820;4.336;2024-03-23T10:23:40;5.80;;;2.20;;
23519;SDS011;11936;50.820;4.336;2024-03-23T10:26:17;7.55;;;2.53;;
23519;SDS011;11936;50.820;4.336;2024-03-23T10:31:25;12.02;;;2.33;;
23519;SDS011;11936;50.820;4.336;2024-03-23T10:33:55;5.53;;;2.10;;
23519;SDS011;11936;50.820;4.336;2024-03-23T10:36:21;4.22;;;2.03;;
23519;SDS011;11936;50.820;4.336;2024-03-23T10:38:49;6.22;;;1.85;;
23519;SDS011;11936;50.820;4.336;2024-03-23T10:41:15;10.60;;;2.15;;
23519;SDS011;11936;50.820;4.336;2024-03-23T10:43:41;12.90;;;1.98;;
23519;SDS011;11936;50.820;4.336;2024-03-23T10:46:09;9.00;;;2.05;;
23519;SDS011;11936;50.820;4.336;2024-03-23T10:48:35;11.85;;;1.95;;
23519;SDS011;11936;50.820;4.336;2024-03-23T10:51:01;7.60;;;1.77;;
23519;SDS011;11936;50.820;4.336;2024-03-23T10:53:27;7.03;;;2.15;;
23519;SDS011;11936;50.820;4.336;2024-03-23T10:55:53;7.30;;;1.70;;
23519;SDS011;11936;50.820;4.336;2024-03-23T10:58:22;7.53;;;2.13;;
23519;SDS011;11936;50.820;4.336;2024-03-23T11:00:55;7.20;;;2.28;;
23519;SDS011;11936;50.820;4.336;2024-03-23T11:03:32;4.25;;;1.65;;
23519;SDS011;11936;50.820;4.336;2024-03-23T11:05:59;8.25;;;2.13;;
23519;SDS011;11936;50.820;4.336;2024-03-23T11:08:32;7.20;;;2.30;;
23519;SDS011;11936;50.820;4.336;2024-03-23T11:13:48;4.75;;;1.60;;
23519;SDS011;11936;50.820;4.336;2024-03-23T11:16:24;6.90;;;1.80;;
23519;SDS011;11936;50.820;4.336;2024-03-23T11:22:04;4.35;;;1.63;;
23519;SDS011;11936;50.820;4.336;2024-03-23T11:24:31;6.97;;;1.60;;
23519;SDS011;11936;50.820;4.336;2024-03-23T11:26:57;6.57;;;2.67;;
23519;SDS011;11936;50.820;4.336;2024-03-23T11:29:28;4.63;;;1.50;;
23519;SDS011;11936;50.820;4.336;2024-03-23T11:31:55;6.18;;;1.75;;
23519;SDS011;11936;50.820;4.336;2024-03-23T11:34:21;8.85;;;1.83;;
23519;SDS011;11936;50.820;4.336;2024-03-23T11:36:47;4.35;;;1.85;;
23519;SDS011;11936;50.820;4.336;2024-03-23T11:41:50;3.97;;;1.47;;
23519;SDS011;11936;50.820;4.336;2024-03-23T11:44:20;8.65;;;2.13;;
23519;SDS011;11936;50.820;4.336;2024-03-23T11:46:50;9.32;;;1.70;;
23519;SDS011;11936;50.820;4.336;2024-03-23T11:49:22;5.65;;;1.85;;
23519;SDS011;11936;50.820;4.336;2024-03-23T11:51:51;4.47;;;1.63;;
23519;SDS011;11936;50.820;4.336;2024-03-23T11:54:25;5.73;;;1.60;;
23519;SDS011;11936;50.820;4.336;2024-03-23T11:56:58;5.07;;;1.77;;
23519;SDS011;11936;50.820;4.336;2024-03-23T11:59:34;6.80;;;1.77;;
23519;SDS011;11936;50.820;4.336;2024-03-23T12:02:08;5.60;;;1.70;;
23519;SDS011;11936;50.820;4.336;2024-03-23T12:04:40;11.77;;;1.90;;
23519;SDS011;11936;50.820;4.336;2024-03-23T12:09:35;7.10;;;1.73;;
23519;SDS011;11936;50.820;4.336;2024-03-23T12:12:11;9.98;;;1.73;;
23519;SDS011;11936;50.820;4.336;2024-03-23T12:14:43;8.65;;;1.75;;
23519;SDS011;11936;50.820;4.336;2024-03-23T12:19:39;6.45;;;1.50;;
23519;SDS011;11936;50.820;4.336;2024-03-23T12:22:06;8.60;;;2.08;;
23519;SDS011;11936;50.820;4.336;2024-03-23T12:24:33;7.80;;;1.88;;
23519;SDS011;11936;50.820;4.336;2024-03-23T12:27:05;6.47;;;1.35;;
23519;SDS011;11936;50.820;4.336;2024-03-23T12:29:34;7.10;;;1.75;;
23519;SDS011;11936;50.820;4.336;2024-03-23T12:32:00;13.95;;;1.75;;
23519;SDS011;11936;50.820;4.336;2024-03-23T12:34:26;8.15;;;1.90;;
23519;SDS011;11936;50.820;4.336;2024-03-23T12:36:52;9.65;;;1.77;;
23519;SDS011;11936;50.820;4.336;2024-03-23T12:39:18;5.70;;;2.53;;
23519;SDS011;11936;50.820;4.336;2024-03-23T12:41:46;21.80;;;1.75;;
23519;SDS011;11936;50.820;4.336;2024-03-23T12:44:12;4.18;;;1.60;;
23519;SDS011;11936;50.820;4.336;2024-03-23T12:46:38;6.82;;;1.80;;
23519;SDS011;11936;50.820;4.336;2024-03-23T12:49:04;5.32;;;1.73;;
23519;SDS011;11936;50.820;4.336;2024-03-23T12:51:31;5.07;;;1.50;;
23519;SDS011;11936;50.820;4.336;2024-03-23T12:53:57;5.80;;;1.58;;
23519;SDS011;11936;50.820;4.336;2024-03-23T12:56:22;5.63;;;1.63;;
23519;SDS011;11936;50.820;4.336;2024-03-23T12:58:48;2.45;;;1.38;;
23519;SDS011;11936;50.820;4.336;2024-03-23T13:01:18;4.22;;;1.35;;
23519;SDS011;11936;50.820;4.336;2024-03-23T13:03:48;9.35;;;3.90;;
23519;SDS011;11936;50.820;4.336;2024-03-23T13:06:14;4.00;;;1.33;;
23519;SDS011;11936;50.820;4.336;2024-03-23T13:08:40;6.53;;;1.50;;
23519;SDS011;11936;50.820;4.336;2024-03-23T13:11:06;3.08;;;1.20;;
23519;SDS011;11936;50.820;4.336;2024-03-23T13:13:36;7.13;;;2.38;;
23519;SDS011;11936;50.820;4.336;2024-03-23T13:16:01;6.80;;;1.50;;
23519;SDS011;11936;50.820;4.336;2024-03-23T13:18:30;5.18;;;1.33;;
23519;SDS011;11936;50.820;4.336;2024-03-23T13:20:57;4.55;;;1.25;;
23519;SDS011;11936;50.820;4.336;2024-03-23T13:23:23;6.45;;;1.60;;
23519;SDS011;11936;50.820;4.336;2024-03-23T13:25:52;5.53;;;1.48;;
23519;SDS011;11936;50.820;4.336;2024-03-23T13:28:21;4.55;;;1.08;;
23519;SDS011;11936;50.820;4.336;2024-03-23T13:30:51;4.57;;;1.23;;
23519;SDS011;11936;50.820;4.336;2024-03-23T13:33:21;8.98;;;1.77;;
23519;SDS011;11936;50.820;4.336;2024-03-23T13:38:19;3.10;;;1.10;;
23519;SDS011;11936;50.820;4.336;2024-03-23T13:41:03;7.85;;;1.98;;
23519;SDS011;11936;50.820;4.336;2024-03-23T13:43:31;5.60;;;1.33;;
23519;SDS011;11936;50.820;4.336;2024-03-23T13:45:57;3.60;;;1.55;;
23519;SDS011;11936;50.820;4.336;2024-03-23T13:48:25;4.88;;;1.15;;
23519;SDS011;11936;50.820;4.336;2024-03-23T13:53:24;6.32;;;1.40;;
23519;SDS011;11936;50.820;4.336;2024-03-23T13:55:50;4.40;;;1.30;;
23519;SDS011;11936;50.820;4.336;2024-03-23T13:58:16;5.90;;;1.38;;
23519;SDS011;11936;50.820;4.336;2024-03-23T14:00:41;6.38;;;1.25;;
23519;SDS011;11936;50.820;4.336;2024-03-23T14:05:36;4.40;;;1.30;;
23519;SDS011;11936;50.820;4.336;2024-03-23T14:08:06;4.30;;;0.65;;
23519;SDS011;11936;50.820;4.336;2024-03-23T14:10:35;2.85;;;1.10;;
23519;SDS011;11936;50.820;4.336;2024-03-23T14:13:02;3.03;;;1.08;;
23519;SDS011;11936;50.820;4.336;2024-03-23T14:15:31;7.38;;;1.38;;
23519;SDS011;11936;50.820;4.336;2024-03-23T14:17:56;4.38;;;1.33;;
23519;SDS011;11936;50.820;4.336;2024-03-23T14:20:22;4.25;;;1.35;;
23519;SDS011;11936;50.820;4.336;2024-03-23T14:22:48;4.10;;;1.38;;
23519;SDS011;11936;50.820;4.336;2024-03-23T14:25:14;11.10;;;2.13;;
23519;SDS011;11936;50.820;4.336;2024-03-23T14:27:40;7.35;;;1.85;;
23519;SDS011;11936;50.820;4.336;2024-03-23T14:30:06;4.80;;;1.30;;
23519;SDS011;11936;50.820;4.336;2024-03-23T14:32:33;2.60;;;1.20;;
23519;SDS011;11936;50.820;4.336;2024-03-23T14:35:02;4.60;;;1.42;;
23519;SDS011;11936;50.820;4.336;2024-03-23T14:37:28;4.00;;;1.50;;
23519;SDS011;11936;50.820;4.336;2024-03-23T14:39:57;6.32;;;1.80;;
23519;SDS011;11936;50.820;4.336;2024-03-23T14:42:23;4.10;;;1.55;;
23519;SDS011;11936;50.820;4.336;2024-03-23T14:44:49;3.08;;;1.08;;
23519;SDS011;11936;50.820;4.336;2024-03-23T14:47:15;2.72;;;1.20;;
23519;SDS011;11936;50.820;4.336;2024-03-23T14:49:42;3.42;;;1.45;;
23519;SDS011;11936;50.820;4.336;2024-03-23T14:52:12;5.07;;;1.83;;
23519;SDS011;11936;50.820;4.336;2024-03-23T14:54:44;3.83;;;1.40;;
23519;SDS011;11936;50.820;4.336;2024-03-23T14:57:10;8.98;;;1.65;;
23519;SDS011;11936;50.820;4.336;2024-03-23T14:59:37;5.75;;;1.58;;
23519;SDS011;11936;50.820;4.336;2024-03-23T15:02:03;6.50;;;1.40;;
23519;SDS011;11936;50.820;4.336;2024-03-23T15:04:32;6.43;;;1.67;;
23519;SDS011;11936;50.820;4.336;2024-03-23T15:06:58;11.23;;;1.60;;
23519;SDS011;11936;50.820;4.336;2024-03-23T15:09:24;6.43;;;1.92;;
23519;SDS011;11936;50.820;4.336;2024-03-23T15:11:49;8.00;;;1.95;;
23519;SDS011;11936;50.820;4.336;2024-03-23T15:14:15;5.28;;;2.20;;
23519;SDS011;11936;50.820;4.336;2024-03-23T15:16:41;5.90;;;2.15;;
23519;SDS011;11936;50.820;4.336;2024-03-23T15:19:07;7.40;;;2.53;;
23519;SDS011;11936;50.820;4.336;2024-03-23T15:21:33;8.98;;;1.63;;
23519;SDS011;11936;50.820;4.336;2024-03-23T15:23:59;6.57;;;1.67;;
23519;SDS011;11936;50.820;4.336;2024-03-23T15:26:25;6.18;;;1.95;;
23519;SDS011;11936;50.820;4.336;2024-03-23T15:28:51;5.80;;;1.52;;
23519;SDS011;11936;50.820;4.336;2024-03-23T15:31:22;7.30;;;1.65;;
23519;SDS011;11936;50.820;4.336;2024-03-23T15:33:48;5.03;;;1.60;;
23519;SDS011;11936;50.820;4.336;2024-03-23T15:36:14;8.43;;;1.50;;
23519;SDS011;11936;50.820;4.336;2024-03-23T15:38:39;8.98;;;1.58;;
23519;SDS011;11936;50.820;4.336;2024-03-23T15:41:05;6.45;;;1.50;;
23519;SDS011;11936;50.820;4.336;2024-03-23T15:43:31;7.85;;;1.63;;
23519;SDS011;11936;50.820;4.336;2024-03-23T15:45:57;5.22;;;1.40;;
23519;SDS011;11936;50.820;4.336;2024-03-23T15:48:29;9.75;;;2.33;;
23519;SDS011;11936;50.820;4.336;2024-03-23T15:50:56;7.38;;;1.90;;
23519;SDS011;11936;50.820;4.336;2024-03-23T15:53:26;3.47;;;1.35;;
23519;SDS011;11936;50.820;4.336;2024-03-23T15:55:59;4.97;;;1.58;;
23519;SDS011;11936;50.820;4.336;2024-03-23T15:58:32;6.03;;;1.52;;
23519;SDS011;11936;50.820;4.336;2024-03-23T16:03:26;3.33;;;1.45;;